Time;durP1;ratioP1;P1;durP2;ratioP2;P2;SDS_P1;SDS_P2;PMS_P1;PMS_P2;Temp;Humidity;BMP_temperature;BMP_pressure;BME280_temperature;BME280_humidity;BME280_pressure;Samples;Min_cycle;Max_cycle;Signal;HPM_P1;HPM_P2
2022/12/30 00:01:55;;;;;;;10.18;3.20;;;;;;;8.72;63.66;99767.75;5031598;28;20064;-56
2022/12/30 00:04:23;;;;;;;;;;;;;;;8.61;63.84;99752.50;5013742;28;20050;-57
2022/12/30 00:06:50;;;;;;;8.48;2.55;;;;;;;8.58;63.84;99767.00;5010805;28;19921;-55
2022/12/30 00:09:21;;;;;;;12.77;2.45;;;;;;;8.56;63.30;99779.56;5011876;28;20058;-57
2022/12/30 00:11:49;;;;;;;12.48;2.72;;;;;;;8.60;62.95;99775.03;5009375;28;20391;-56
2022/12/30 00:33:55;;;;;;;9.75;2.83;;;;;;;8.47;63.73;99783.13;5033294;28;20485;-57
2022/12/30 00:36:24;;;;;;;10.95;2.92;;;;;;;8.34;64.73;99789.53;5030621;28;20053;-55
2022/12/30 00:38:52;;;;;;;10.70;2.95;;;;;;;8.46;63.93;99798.16;5024826;28;20434;-56
2022/12/30 00:44:07;;;;;;;7.75;2.10;;;;;;;8.61;63.50;99793.31;5032230;28;20061;-57
2022/12/30 00:46:36;;;;;;;11.23;2.60;;;;;;;8.63;63.56;99796.59;5032023;28;20053;-56
2022/12/30 00:57:22;;;;;;;7.90;2.47;;;;;;;8.60;64.02;99823.03;5007860;28;20057;-57
2022/12/30 00:59:52;;;;;;;8.75;2.30;;;;;;;8.53;63.59;99826.25;5002797;28;20058;-55
2022/12/30 01:02:20;;;;;;;10.73;3.05;;;;;;;8.66;64.28;99829.28;5012492;28;20471;-56
2022/12/30 01:04:47;;;;;;;11.25;3.13;;;;;;;8.64;63.89;99817.69;5013676;28;20053;-57
2022/12/30 01:07:18;;;;;;;12.77;2.90;;;;;;;8.65;62.62;99830.41;4996131;28;20406;-55
2022/12/30 01:09:48;;;;;;;9.65;2.20;;;;;;;8.65;63.71;99822.91;4996939;28;20395;-56
2022/12/30 01:12:16;;;;;;;10.63;2.97;;;;;;;8.69;62.85;99825.84;5018695;28;20061;-56
2022/12/30 01:14:47;;;;;;;7.03;2.10;;;;;;;8.68;62.89;99819.50;5003368;28;20059;-57
2022/12/30 01:17:18;;;;;;;12.68;2.92;;;;;;;8.51;62.66;99822.97;5005921;28;21581;-56
2022/12/30 01:19:46;;;;;;;10.25;2.55;;;;;;;8.62;63.53;99823.53;5006324;28;20496;-56
2022/12/30 01:22:17;;;;;;;6.95;2.33;;;;;;;8.60;62.62;99825.00;5004403;28;20057;-56
2022/12/30 01:24:47;;;;;;;7.18;2.50;;;;;;;8.59;63.62;99823.34;5011514;28;20046;-56
2022/12/30 01:27:19;;;;;;;7.82;2.70;;;;;;;8.63;62.42;99822.41;5002367;28;20062;-57
2022/12/30 01:29:49;;;;;;;6.75;2.92;;;;;;;8.40;63.28;99829.91;5014279;28;20049;-56
2022/12/30 01:32:17;;;;;;;;;;;;;;;8.43;63.50;99818.19;5007134;28;20054;-56
2022/12/30 01:34:46;;;;;;;9.98;2.70;;;;;;;8.48;63.16;99822.78;5006969;28;19922;-56
2022/12/30 01:37:16;;;;;;;8.05;2.38;;;;;;;8.46;63.88;99831.44;5016801;28;20057;-54
2022/12/30 01:39:43;;;;;;;8.68;2.53;;;;;;;8.48;64.72;99837.50;5014460;28;20050;-54
2022/12/30 01:42:19;;;;;;;10.88;3.00;;;;;;;8.45;63.63;99834.53;5017949;28;20053;-54
2022/12/30 01:45:02;;;;;;;13.45;2.70;;;;;;;8.49;63.17;99841.91;5006475;28;20046;-56
2022/12/30 01:47:38;;;;;;;8.57;2.30;;;;;;;8.47;63.68;99844.19;5003729;28;20064;-56
2022/12/30 01:50:18;;;;;;;10.45;2.88;;;;;;;8.52;63.72;99851.56;5008723;28;20054;-54
2022/12/30 01:52:52;;;;;;;12.40;2.50;;;;;;;8.52;63.73;99852.41;5007298;28;20050;-55
2022/12/30 01:55:26;;;;;;;8.00;2.28;;;;;;;8.48;63.21;99850.53;5013516;28;20053;-57
2022/12/30 01:57:56;;;;;;;14.88;2.97;;;;;;;8.40;64.08;99854.03;5008196;28;20053;-56
2022/12/30 02:00:25;;;;;;;10.27;2.63;;;;;;;8.40;64.81;99849.34;5005245;28;20058;-55
2022/12/30 02:02:54;;;;;;;6.65;2.47;;;;;;;8.41;64.74;99851.00;5009719;28;20050;-55
2022/12/30 02:05:26;;;;;;;10.48;3.40;;;;;;;8.43;63.50;99853.47;5009496;28;20060;-52
2022/12/30 02:08:01;;;;;;;9.25;2.20;;;;;;;8.42;63.98;99866.53;5004926;28;20050;-57
2022/12/30 02:10:29;;;;;;;10.30;2.30;;;;;;;8.46;63.05;99864.75;5021900;28;20054;-56
2022/12/30 02:12:58;;;;;;;18.30;3.00;;;;;;;8.37;64.37;99861.03;5011206;28;20053;-56
2022/12/30 02:15:43;;;;;;;9.65;2.40;;;;;;;8.43;63.95;99865.38;5007805;28;20491;-56
2022/12/30 02:18:22;;;;;;;7.45;2.05;;;;;;;8.39;64.62;99861.56;5003818;28;20046;-56
2022/12/30 02:21:25;;;;;;;9.90;2.78;;;;;;;8.38;64.12;99868.25;5004215;28;20138;-56
2022/12/30 02:24:21;;;;;;;8.68;2.22;;;;;;;8.36;63.79;99853.88;5013822;28;20049;-55
2022/12/30 02:27:10;;;;;;;13.63;2.55;;;;;;;8.29;64.55;99853.47;5007124;28;20426;-56
2022/12/30 02:30:18;;;;;;;9.07;2.17;;;;;;;8.27;64.20;99850.19;5001567;28;20415;-56
2022/12/30 02:33:03;;;;;;;9.40;2.55;;;;;;;8.09;64.80;99858.38;5004905;28;20050;-56
2022/12/30 02:35:38;;;;;;;10.02;2.33;;;;;;;8.13;65.46;99847.47;5005210;28;20046;-54
2022/12/30 02:38:14;;;;;;;9.68;2.47;;;;;;;8.14;64.65;99849.09;5012033;28;20050;-56
2022/12/30 02:46:31;;;;;;;9.32;2.17;;;;;;;8.11;65.01;99858.88;5018661;28;20414;-56
2022/12/30 02:49:04;;;;;;;17.02;3.15;;;;;;;8.16;64.85;99843.25;5006123;28;20413;-55
2022/12/30 02:54:18;;;;;;;9.80;2.95;;;;;;;8.02;64.83;99843.28;5018936;28;20086;-56
2022/12/30 02:56:53;;;;;;;11.07;2.58;;;;;;;8.00;65.33;99849.16;5011723;28;20073;-55
2022/12/30 03:05:31;;;;;;;8.63;2.70;;;;;;;7.88;64.28;99846.13;5015558;28;20129;-54
2022/12/30 03:08:06;;;;;;;17.70;2.77;;;;;;;7.97;64.33;99847.00;5003070;28;20050;-55
2022/12/30 03:13:49;;;;;;;7.78;2.47;;;;;;;8.05;64.79;99851.81;4977409;28;20432;-54
2022/12/30 03:16:24;;;;;;;11.15;2.95;;;;;;;7.98;64.05;99854.22;4971414;28;20062;-55
2022/12/30 03:18:54;;;;;;;13.65;3.10;;;;;;;7.94;64.74;99855.97;4984507;28;20054;-55
2022/12/30 03:21:27;;;;;;;15.05;3.45;;;;;;;7.84;64.57;99854.22;5012583;28;20058;-56
2022/12/30 03:29:34;;;;;;;6.85;2.17;;;;;;;7.86;64.53;99845.59;5011243;28;20056;-56
2022/12/30 03:32:07;;;;;;;11.25;2.75;;;;;;;7.87;65.31;99852.78;5004503;28;20057;-56
2022/12/30 03:34:38;;;;;;;9.45;1.98;;;;;;;7.82;65.09;99850.13;4997754;28;20050;-56
2022/12/30 03:37:16;;;;;;;14.27;2.97;;;;;;;7.79;65.47;99845.19;5012587;28;20416;-55
2022/12/30 03:39:49;;;;;;;8.75;2.75;;;;;;;7.78;65.14;99851.88;4999538;28;20050;-56
2022/12/30 03:42:18;;;;;;;6.60;2.55;;;;;;;7.78;64.55;99841.63;5003387;28;20060;-56
2022/12/30 03:44:46;;;;;;;9.45;2.80;;;;;;;7.74;64.89;99843.38;5012413;28;20053;-56
2022/12/30 03:47:15;;;;;;;12.48;2.60;;;;;;;7.65;65.10;99846.06;5011179;28;20045;-57
2022/12/30 03:49:44;;;;;;;7.72;2.45;;;;;;;7.70;65.38;99848.69;5012548;28;20072;-55
2022/12/30 03:52:14;;;;;;;10.52;2.45;;;;;;;7.66;65.99;99858.75;5003188;28;20053;-56
2022/12/30 03:54:42;;;;;;;10.52;2.47;;;;;;;7.67;65.66;99852.09;4997874;28;20056;-56
2022/12/30 03:57:10;;;;;;;10.23;2.83;;;;;;;7.62;65.81;99857.78;5001855;28;20054;-56
2022/12/30 03:59:37;;;;;;;8.68;2.40;;;;;;;7.61;65.49;99847.00;5002078;28;20065;-55
2022/12/30 04:02:05;;;;;;;7.65;2.28;;;;;;;7.59;64.83;99847.28;5012385;28;20042;-56
2022/12/30 04:04:33;;;;;;;11.18;2.60;;;;;;;7.62;65.90;99852.22;5011439;28;20061;-55
2022/12/30 04:07:01;;;;;;;15.57;2.38;;;;;;;7.53;66.23;99834.66;5010047;28;20058;-57
2022/12/30 04:09:30;;;;;;;11.90;2.55;;;;;;;7.45;65.87;99843.72;5008967;28;20408;-55
2022/12/30 04:11:57;;;;;;;11.95;2.70;;;;;;;7.38;66.15;99849.66;5012688;28;20483;-56
2022/12/30 04:14:25;;;;;;;8.18;2.53;;;;;;;7.46;66.07;99837.06;5004251;28;20054;-55
2022/12/30 04:16:53;;;;;;;12.35;2.83;;;;;;;7.40;66.38;99850.19;5011449;28;20053;-55
2022/12/30 04:19:20;;;;;;;9.10;2.38;;;;;;;7.48;65.48;99843.09;5001457;28;20051;-52
2022/12/30 04:21:48;;;;;;;16.65;2.97;;;;;;;7.36;67.06;99846.38;5006703;28;20051;-54
2022/12/30 04:24:16;;;;;;;10.60;2.55;;;;;;;7.28;66.11;99845.16;5001961;28;20064;-55
2022/12/30 04:26:45;;;;;;;11.73;2.22;;;;;;;7.44;66.86;99839.31;5008081;28;20049;-56
2022/12/30 04:29:16;;;;;;;8.20;2.42;;;;;;;7.39;65.99;99836.63;5004948;28;20470;-56
2022/12/30 04:31:44;;;;;;;10.25;2.75;;;;;;;7.46;65.55;99839.81;5006220;28;20414;-54
2022/12/30 04:34:14;;;;;;;9.90;2.70;;;;;;;7.45;65.54;99838.97;4992923;28;20415;-56
2022/12/30 04:36:42;;;;;;;8.48;2.55;;;;;;;7.35;65.84;99841.16;5010464;28;20552;-56
2022/12/30 04:39:10;;;;;;;10.95;3.63;;;;;;;7.35;66.90;99833.69;4993303;28;20061;-56
2022/12/30 04:41:38;;;;;;;10.27;2.45;;;;;;;7.41;66.41;99845.44;4996768;28;20061;-55
2022/12/30 04:44:07;;;;;;;9.23;2.55;;;;;;;7.45;66.64;99850.06;5007934;28;20426;-55
2022/12/30 04:46:35;;;;;;;8.65;2.45;;;;;;;7.36;67.16;99856.66;5011960;28;20076;-56
2022/12/30 04:49:03;;;;;;;12.13;2.50;;;;;;;7.35;67.08;99846.69;5010141;28;20062;-55
2022/12/30 04:51:31;;;;;;;9.65;3.00;;;;;;;7.26;67.45;99846.59;4999331;28;20045;-53
2022/12/30 04:53:58;;;;;;;10.88;2.75;;;;;;;7.31;66.97;99852.84;5021296;28;20064;-56
2022/12/30 04:56:26;;;;;;;9.75;2.50;;;;;;;7.29;66.35;99848.75;5023400;28;20054;-55
2022/12/30 04:58:54;;;;;;;7.93;2.22;;;;;;;7.42;66.55;99852.66;5015428;28;20061;-56
2022/12/30 05:01:23;;;;;;;14.15;2.92;;;;;;;7.43;66.10;99851.50;4997559;28;20061;-54
2022/12/30 05:03:51;;;;;;;7.18;2.20;;;;;;;7.39;66.10;99854.09;4999945;28;20490;-57
2022/12/30 05:06:18;;;;;;;10.75;2.28;;;;;;;7.42;66.63;99852.66;5007754;28;20061;-56
2022/12/30 05:08:46;;;;;;;9.80;2.35;;;;;;;7.41;67.26;99862.91;5017513;28;20057;-56
2022/12/30 05:11:14;;;;;;;11.02;2.15;;;;;;;7.36;66.34;99853.88;5023263;28;20065;-56
2022/12/30 05:13:42;;;;;;;8.07;3.17;;;;;;;7.40;66.04;99854.91;5017536;28;20045;-55
2022/12/30 05:16:10;;;;;;;7.63;2.15;;;;;;;7.28;67.14;99864.53;5015732;28;20065;-56
2022/12/30 05:18:41;;;;;;;8.18;2.55;;;;;;;7.32;66.53;99861.97;5014317;28;20054;-56
2022/12/30 05:21:09;;;;;;;7.60;2.20;;;;;;;7.31;67.44;99874.22;5015994;28;20053;-55
2022/12/30 05:26:24;;;;;;;9.90;2.50;;;;;;;7.30;67.72;99856.75;5010475;28;20053;-55
2022/12/30 05:28:57;;;;;;;7.15;2.80;;;;;;;7.30;67.63;99856.75;5012614;28;20045;-56
2022/12/30 05:31:26;;;;;;;10.57;2.00;;;;;;;7.30;66.95;99845.66;5011071;28;20418;-55
2022/12/30 05:33:57;;;;;;;10.75;2.70;;;;;;;7.39;66.35;99853.25;5014475;28;20064;-56
2022/12/30 05:36:25;;;;;;;9.43;2.35;;;;;;;7.22;66.71;99863.00;4996086;28;20058;-55
2022/12/30 05:38:52;;;;;;;9.98;2.80;;;;;;;7.26;67.62;99863.22;5011447;28;20049;-54
2022/12/30 05:41:20;;;;;;;10.05;2.92;;;;;;;7.29;67.13;99868.97;5034594;28;20058;-55
2022/12/30 05:43:48;;;;;;;12.05;2.33;;;;;;;7.31;67.69;99863.94;5034939;28;20406;-55
2022/12/30 05:46:16;;;;;;;8.98;2.60;;;;;;;7.29;67.52;99860.66;5035180;28;20053;-56
2022/12/30 05:48:47;;;;;;;9.50;2.50;;;;;;;7.34;67.15;99853.38;5035187;28;20045;-56
2022/12/30 05:51:19;;;;;;;10.82;2.33;;;;;;;7.39;67.54;99851.31;5034721;28;20072;-56
2022/12/30 05:53:46;;;;;;;7.25;2.42;;;;;;;7.43;66.00;99852.34;5031494;28;20418;-55
2022/12/30 05:56:14;;;;;;;7.43;2.53;;;;;;;7.33;66.63;99841.47;5034725;28;20054;-55
2022/12/30 05:58:44;;;;;;;7.82;2.10;;;;;;;7.30;67.00;99853.97;5032025;28;20486;-56
2022/12/30 06:01:14;;;;;;;10.35;2.58;;;;;;;7.38;66.71;99857.16;5034990;28;20060;-54
2022/12/30 06:03:42;;;;;;;7.72;2.40;;;;;;;7.38;67.43;99852.44;5034731;28;20057;-56
2022/12/30 06:06:13;;;;;;;5.38;1.88;;;;;;;7.43;66.95;99857.91;5034637;28;20076;-56
2022/12/30 06:08:42;;;;;;;7.28;2.47;;;;;;;7.32;66.74;99865.56;5016067;28;20058;-56
2022/12/30 06:11:10;;;;;;;9.60;2.85;;;;;;;7.34;67.58;99858.91;5015211;28;20394;-56
2022/12/30 06:13:39;;;;;;;11.80;2.95;;;;;;;7.24;67.78;99859.91;5014861;28;20065;-56
2022/12/30 06:16:07;;;;;;;7.23;2.50;;;;;;;7.39;67.58;99850.47;5014445;28;20058;-56
2022/12/30 06:18:34;;;;;;;7.15;1.92;;;;;;;7.31;66.94;99858.41;5014253;28;20049;-56
2022/12/30 06:21:02;;;;;;;8.90;2.50;;;;;;;7.37;66.48;99847.19;5014731;28;20061;-55
2022/12/30 06:23:29;;;;;;;8.68;2.58;;;;;;;7.37;66.46;99838.88;5023644;28;20064;-56
2022/12/30 06:26:00;;;;;;;10.10;2.00;;;;;;;7.42;67.33;99841.56;5033782;28;20064;-54
2022/12/30 06:28:29;;;;;;;9.20;2.65;;;;;;;7.27;67.58;99849.06;5033902;28;20060;-55
2022/12/30 06:30:57;;;;;;;9.55;1.92;;;;;;;7.31;66.63;99847.31;4995961;28;20506;-56
2022/12/30 06:33:26;;;;;;;8.18;1.85;;;;;;;7.36;67.13;99840.03;4994418;28;20054;-56
2022/12/30 06:35:53;;;;;;;7.60;2.83;;;;;;;7.28;67.71;99827.72;4994557;28;20502;-55
2022/12/30 06:38:21;;;;;;;8.98;2.30;;;;;;;7.31;66.24;99824.34;5020210;28;20414;-57
2022/12/30 06:40:49;;;;;;;6.63;2.03;;;;;;;7.35;66.75;99835.59;5034017;28;20053;-56
2022/12/30 06:43:18;;;;;;;9.90;2.80;;;;;;;7.26;66.83;99822.47;5033645;28;20049;-54
2022/12/30 06:45:49;;;;;;;11.73;2.28;;;;;;;7.28;67.44;99831.28;5033864;28;20064;-57
2022/12/30 06:48:17;;;;;;;10.65;2.13;;;;;;;7.34;67.10;99825.66;5032124;28;20494;-56
2022/12/30 06:50:52;;;;;;;7.85;2.45;;;;;;;7.40;67.30;99825.25;5032350;28;20056;-56
2022/12/30 06:53:20;;;;;;;6.55;1.90;;;;;;;7.45;65.81;99833.44;5025971;28;20046;-56
2022/12/30 06:55:51;;;;;;;9.68;2.03;;;;;;;7.44;66.47;99825.47;5033531;28;20056;-56
2022/12/30 06:58:23;;;;;;;5.82;1.95;;;;;;;7.40;67.07;99816.94;5033003;28;20086;-56
2022/12/30 07:00:53;;;;;;;9.32;2.58;;;;;;;7.25;66.53;99820.84;5031673;28;20065;-54
2022/12/30 07:03:23;;;;;;;8.95;2.42;;;;;;;7.18;67.67;99823.22;5033248;28;20065;-56
2022/12/30 07:05:54;;;;;;;10.35;2.70;;;;;;;7.28;66.38;99822.16;5033386;28;20494;-54
2022/12/30 07:08:23;;;;;;;6.82;1.90;;;;;;;7.21;66.50;99811.50;5012340;28;20046;-56
2022/12/30 07:10:55;;;;;;;9.80;2.58;;;;;;;7.35;66.28;99816.22;5012873;28;20065;-57
2022/12/30 07:13:45;;;;;;;7.30;2.55;;;;;;;7.16;66.73;99817.16;5013579;28;20050;-55
2022/12/30 07:19:00;;;;;;;13.48;2.60;;;;;;;7.16;66.45;99803.31;5032369;28;20494;-55
2022/12/30 07:21:35;;;;;;;7.13;2.25;;;;;;;7.27;66.60;99795.63;5027238;28;20049;-55
2022/12/30 07:24:02;;;;;;;6.78;2.00;;;;;;;7.27;66.37;99790.88;5033131;28;20057;-57
2022/12/30 07:26:39;;;;;;;7.40;2.00;;;;;;;7.27;67.46;99785.34;5033134;28;20064;-55
2022/12/30 07:29:08;;;;;;;9.80;2.10;;;;;;;7.45;67.34;99779.97;5033077;28;20414;-55
2022/12/30 07:31:44;;;;;;;12.68;2.67;;;;;;;7.47;67.28;99777.72;5022922;28;20050;-55
2022/12/30 07:34:41;;;;;;;9.98;2.05;;;;;;;7.56;66.64;99786.13;4993338;28;20057;-55
2022/12/30 07:37:17;;;;;;;6.18;2.53;;;;;;;7.48;66.44;99787.69;5023611;28;20053;-55
2022/12/30 07:39:45;;;;;;;8.63;1.98;;;;;;;7.53;66.09;99784.78;5032670;28;20053;-54
2022/12/30 07:42:14;;;;;;;5.60;1.92;;;;;;;7.46;66.70;99774.13;5033151;28;20053;-55
2022/12/30 07:44:45;;;;;;;9.32;2.65;;;;;;;7.61;66.22;99772.16;5032722;28;20076;-55
2022/12/30 07:47:17;;;;;;;8.30;2.13;;;;;;;7.40;67.29;99757.94;5032846;28;20489;-54
2022/12/30 07:49:44;;;;;;;7.80;2.00;;;;;;;7.61;66.23;99761.88;5033595;28;20046;-55
2022/12/30 07:52:12;;;;;;;7.65;1.90;;;;;;;7.65;67.06;99767.63;5032687;28;20482;-55
2022/12/30 07:54:39;;;;;;;5.70;2.08;;;;;;;7.56;66.42;99769.47;5032463;28;20368;-55
2022/12/30 07:57:07;;;;;;;8.98;2.00;;;;;;;7.62;66.92;99762.69;5032790;28;20521;-54
2022/12/30 07:59:34;;;;;;;6.22;2.17;;;;;;;7.64;67.14;99772.38;5032256;28;20053;-55
2022/12/30 08:02:03;;;;;;;7.43;1.80;;;;;;;7.58;66.20;99762.53;5032572;28;20390;-56
2022/12/30 08:04:30;;;;;;;7.78;2.30;;;;;;;7.72;65.88;99759.69;5015754;28;20049;-54
2022/12/30 08:06:58;;;;;;;8.30;2.05;;;;;;;7.93;65.18;99774.69;5008214;28;20376;-54
2022/12/30 08:09:26;;;;;;;7.55;2.00;;;;;;;7.91;65.87;99763.09;5012240;28;20068;-56
2022/12/30 08:11:53;;;;;;;5.53;1.98;;;;;;;8.00;65.15;99763.19;5013097;28;20517;-55
2022/12/30 08:14:21;;;;;;;4.75;1.58;;;;;;;8.07;65.18;99766.34;5012758;28;20076;-56
2022/12/30 08:16:48;;;;;;;7.28;2.00;;;;;;;8.28;64.64;99757.50;5010210;28;20061;-56
2022/12/30 08:19:17;;;;;;;6.20;1.88;;;;;;;8.36;64.59;99753.97;5012232;28;20045;-55
2022/12/30 08:21:45;;;;;;;6.60;1.90;;;;;;;8.30;64.72;99760.78;5012847;28;20057;-55
2022/12/30 08:24:12;;;;;;;6.38;1.63;;;;;;;8.56;63.07;99752.63;5015925;28;20049;-54
2022/12/30 08:26:40;;;;;;;4.35;1.67;;;;;;;8.56;64.48;99751.81;5033635;28;20050;-55
2022/12/30 08:29:07;;;;;;;4.30;1.98;;;;;;;8.64;63.65;99756.59;5035284;28;20049;-56
2022/12/30 08:31:34;;;;;;;6.18;1.77;;;;;;;8.68;64.08;99746.50;5006417;28;20073;-56
2022/12/30 08:34:02;;;;;;;6.85;1.75;;;;;;;8.75;63.07;99749.63;5028626;28;20101;-55
2022/12/30 08:36:31;;;;;;;4.95;1.67;;;;;;;8.83;63.92;99746.06;5034176;28;20418;-55
2022/12/30 08:39:03;;;;;;;9.50;1.80;;;;;;;9.02;62.41;99739.44;5036483;28;20379;-55
2022/12/30 08:41:32;;;;;;;4.50;1.45;;;;;;;9.20;62.30;99729.16;5011609;28;20050;-54
2022/12/30 08:44:00;;;;;;;4.75;1.55;;;;;;;9.37;61.11;99726.44;5008185;28;20057;-55
2022/12/30 08:46:30;;;;;;;8.48;1.77;;;;;;;9.48;60.74;99724.16;5016283;28;20515;-56
2022/12/30 08:48:57;;;;;;;5.75;1.88;;;;;;;9.46;61.22;99713.38;5010713;28;20046;-55
2022/12/30 08:51:25;;;;;;;5.43;1.60;;;;;;;9.53;60.87;99707.31;5002490;28;20057;-55
2022/12/30 08:53:54;;;;;;;5.30;1.80;;;;;;;9.60;59.83;99696.53;5008156;28;20046;-56
2022/12/30 08:56:24;;;;;;;6.10;1.85;;;;;;;9.71;60.97;99697.84;4998649;28;20058;-57
2022/12/30 08:58:52;;;;;;;5.35;1.60;;;;;;;9.99;58.91;99697.47;5007258;28;20050;-55
2022/12/30 09:01:21;;;;;;;5.38;2.03;;;;;;;9.87;59.39;99697.31;5014123;28;20080;-56
2022/12/30 09:03:50;;;;;;;5.93;1.40;;;;;;;9.92;59.54;99702.75;5025019;28;20529;-56
2022/12/30 09:06:20;;;;;;;4.95;1.70;;;;;;;9.78;59.71;99688.19;5014168;28;20410;-55
2022/12/30 09:08:48;;;;;;;6.10;1.80;;;;;;;9.92;59.38;99691.59;5007921;28;20505;-53
2022/12/30 09:11:20;;;;;;;7.32;1.95;;;;;;;10.01;59.22;99695.19;5008819;28;20060;-54
2022/12/30 09:13:50;;;;;;;5.18;1.35;;;;;;;10.23;59.07;99685.00;5009094;28;20505;-55
2022/12/30 09:16:21;;;;;;;5.72;1.40;;;;;;;10.19;57.84;99668.16;5010938;28;20498;-56
2022/12/30 09:18:49;;;;;;;5.22;1.90;;;;;;;10.26;58.95;99673.22;5018641;28;20076;-55
2022/12/30 09:21:18;;;;;;;4.80;1.77;;;;;;;9.83;59.20;99683.28;5011430;28;20077;-55
2022/12/30 09:23:46;;;;;;;5.78;2.03;;;;;;;10.13;59.13;99664.72;5013243;28;20058;-55
2022/12/30 09:26:15;;;;;;;6.15;1.73;;;;;;;10.22;59.17;99667.47;5011816;28;20053;-55
2022/12/30 09:28:45;;;;;;;3.53;1.50;;;;;;;10.05;59.42;99662.78;5013534;28;20046;-55
2022/12/30 09:31:13;;;;;;;5.70;1.60;;;;;;;10.11;59.32;99667.00;5011987;28;20494;-56
2022/12/30 09:33:40;;;;;;;6.25;2.13;;;;;;;10.23;58.29;99662.75;5008294;28;20050;-57
2022/12/30 09:36:08;;;;;;;5.57;1.80;;;;;;;10.45;58.08;99679.22;4997182;28;20471;-55
2022/12/30 09:38:36;;;;;;;3.80;1.30;;;;;;;10.49;58.08;99645.97;4995405;28;20057;-56
2022/12/30 09:41:08;;;;;;;5.22;1.48;;;;;;;10.80;57.39;99645.66;5003816;28;20053;-55
2022/12/30 09:43:42;;;;;;;3.83;1.25;;;;;;;11.29;56.26;99642.38;5014973;28;20050;-56
2022/12/30 09:46:20;;;;;;;5.53;1.85;;;;;;;11.19;55.98;99643.59;5007470;28;20058;-56
2022/12/30 09:48:54;;;;;;;4.72;1.55;;;;;;;10.99;56.10;99622.91;5016406;28;20398;-55
2022/12/30 09:51:27;;;;;;;7.00;1.92;;;;;;;11.11;56.27;99625.78;5013065;28;20050;-54
2022/12/30 09:54:00;;;;;;;5.20;1.48;;;;;;;10.79;56.61;99623.69;5013957;28;20418;-55
2022/12/30 09:56:31;;;;;;;6.97;1.88;;;;;;;11.03;56.10;99629.44;5014158;28;20530;-55
2022/12/30 09:59:07;;;;;;;4.97;1.38;;;;;;;10.87;56.57;99626.44;4998460;28;20058;-54
2022/12/30 10:01:40;;;;;;;5.30;1.38;;;;;;;10.71;56.51;99628.19;5007785;28;20046;-55
2022/12/30 10:04:14;;;;;;;5.25;1.92;;;;;;;10.59;56.97;99606.63;5017888;28;20050;-55
2022/12/30 10:06:48;;;;;;;5.10;1.70;;;;;;;10.61;57.30;99628.56;5013466;28;20509;-56
2022/12/30 10:09:43;;;;;;;5.47;1.30;;;;;;;10.55;57.27;99598.09;5010179;28;20494;-56
2022/12/30 10:12:35;;;;;;;6.10;1.67;;;;;;;10.72;56.93;99596.38;4995842;28;20058;-55
2022/12/30 10:15:18;;;;;;;3.50;1.60;;;;;;;10.62;56.77;99588.41;4995026;28;20479;-56
2022/12/30 10:18:03;;;;;;;4.10;1.35;;;;;;;10.59;56.92;99572.38;5014137;28;20058;-57
2022/12/30 10:20:44;;;;;;;3.97;1.70;;;;;;;10.62;56.61;99575.28;5010697;28;20057;-56
2022/12/30 10:23:22;;;;;;;4.60;1.70;;;;;;;10.83;55.99;99563.38;5012586;28;20491;-55
2022/12/30 10:25:59;;;;;;;3.95;1.50;;;;;;;11.15;55.46;99539.53;5012693;28;20061;-55
2022/12/30 10:28:32;;;;;;;4.07;1.30;;;;;;;11.57;54.17;99533.88;5004989;28;20053;-54
2022/12/30 10:31:00;;;;;;;4.07;1.20;;;;;;;12.43;51.57;99524.81;5013533;28;20117;-55
2022/12/30 10:33:31;;;;;;;3.03;1.27;;;;;;;13.98;48.41;99519.69;5012752;28;20042;-55
2022/12/30 10:36:04;;;;;;;3.03;1.30;;;;;;;14.74;46.27;99513.94;5008431;28;20065;-55
2022/12/30 10:38:32;;;;;;;3.42;1.23;;;;;;;15.06;44.69;99509.03;5011125;28;20050;-56
2022/12/30 10:41:07;;;;;;;2.95;1.17;;;;;;;15.26;44.73;99500.63;5022121;28;20046;-56
2022/12/30 10:43:49;;;;;;;4.88;1.50;;;;;;;17.24;40.95;99513.94;5015462;28;20070;-56
2022/12/30 10:46:32;;;;;;;2.97;1.23;;;;;;;15.79;42.17;99490.44;5003474;28;20060;-54
2022/12/30 10:49:16;;;;;;;4.15;1.60;;;;;;;15.70;42.70;99478.59;5018889;28;20126;-56
2022/12/30 10:51:43;;;;;;;2.45;1.10;;;;;;;16.90;40.28;99477.31;5011282;28;20050;-55
2022/12/30 10:54:11;;;;;;;3.10;1.70;;;;;;;17.93;39.24;99470.44;5012439;28;20418;-56
2022/12/30 10:56:40;;;;;;;4.68;1.60;;;;;;;19.65;35.63;99462.91;4998954;28;20501;-56
2022/12/30 10:59:14;;;;;;;2.83;1.23;;;;;;;19.23;35.54;99476.53;5013225;28;20061;-57
2022/12/30 11:01:43;;;;;;;3.00;1.30;;;;;;;19.92;34.74;99449.25;5023280;28;20163;-56
2022/12/30 11:04:33;;;;;;;2.90;1.48;;;;;;;19.66;34.13;99450.41;5033445;28;20053;-57
2022/12/30 11:07:01;;;;;;;5.15;1.70;;;;;;;18.69;36.49;99438.75;5007019;28;20396;-57
2022/12/30 11:09:29;;;;;;;2.90;1.40;;;;;;;18.99;36.06;99421.59;5000308;28;21497;-56
2022/12/30 11:14:45;;;;;;;6.47;2.05;;;;;;;16.79;38.94;99423.69;5017869;28;20414;-58
2022/12/30 11:17:23;;;;;;;3.28;1.60;;;;;;;16.09;40.76;99438.38;5028380;28;20056;-57
2022/12/30 11:19:54;;;;;;;4.05;1.63;;;;;;;15.19;42.89;99433.97;5007927;28;20172;-56
2022/12/30 11:22:22;;;;;;;4.10;1.33;;;;;;;14.10;45.54;99444.00;5009970;28;20053;-58
2022/12/30 11:24:59;;;;;;;4.18;1.50;;;;;;;13.46;46.42;99406.84;5008847;28;20046;-57
2022/12/30 11:27:39;;;;;;;6.53;1.88;;;;;;;13.24;48.32;99399.81;5012400;28;20065;-56
2022/12/30 11:30:07;;;;;;;3.95;1.60;;;;;;;12.80;48.79;99389.44;5014258;28;20076;-54
2022/12/30 11:32:35;;;;;;;4.15;1.20;;;;;;;12.75;48.29;99395.31;5011941;28;20491;-56
2022/12/30 11:35:05;;;;;;;4.22;1.42;;;;;;;12.53;49.29;99415.41;5008395;28;20064;-56
2022/12/30 11:37:33;;;;;;;;;;;;;;;12.17;49.62;99392.78;5013325;28;20060;-56
2022/12/30 11:40:25;;;;;;;6.22;2.28;;;;;;;12.00;51.50;99406.19;5009359;28;19921;-54
2022/12/30 11:43:12;;;;;;;4.10;1.40;;;;;;;11.74;51.98;99396.19;5007451;28;20057;-58
2022/12/30 11:45:50;;;;;;;3.55;1.38;;;;;;;11.55;53.04;99382.81;5010697;28;20050;-56
2022/12/30 11:48:23;;;;;;;5.35;1.60;;;;;;;11.53;52.65;99373.97;5012719;28;20058;-55
2022/12/30 11:50:54;;;;;;;3.60;1.50;;;;;;;11.38;53.04;99369.88;5012300;28;20050;-56
2022/12/30 11:53:28;;;;;;;5.28;1.48;;;;;;;11.42;53.21;99362.44;5012761;28;20058;-55
2022/12/30 11:55:55;;;;;;;4.75;1.45;;;;;;;11.28;53.17;99334.13;5012314;28;20053;-56
2022/12/30 11:58:27;;;;;;;4.90;1.67;;;;;;;11.25;53.20;99334.78;5018166;28;20133;-56
2022/12/30 12:01:02;;;;;;;8.27;2.22;;;;;;;11.24;53.86;99338.75;5032233;28;20490;-56
2022/12/30 12:03:30;;;;;;;4.32;1.50;;;;;;;11.12;54.05;99339.53;5032843;28;20080;-55
2022/12/30 12:06:09;;;;;;;4.25;1.52;;;;;;;10.97;54.33;99327.09;5032039;28;20541;-54
2022/12/30 12:08:43;;;;;;;3.40;1.40;;;;;;;10.94;54.67;99330.56;5013260;28;20380;-55
2022/12/30 12:11:15;;;;;;;5.10;1.42;;;;;;;10.75;55.19;99286.53;5012195;28;20057;-56
2022/12/30 12:13:51;;;;;;;3.45;1.60;;;;;;;10.69;56.37;99318.56;5023490;28;20060;-54
2022/12/30 12:16:32;;;;;;;3.67;1.58;;;;;;;10.49;56.52;99309.88;5032303;28;20058;-56
2022/12/30 12:19:07;;;;;;;6.72;1.60;;;;;;;10.41;56.20;99324.72;5032470;28;20379;-55
2022/12/30 12:21:43;;;;;;;3.65;1.30;;;;;;;10.43;56.98;99290.97;5032134;28;20053;-55
2022/12/30 12:24:20;;;;;;;5.32;1.70;;;;;;;10.61;56.16;99277.69;5030425;28;20054;-56
2022/12/30 12:26:56;;;;;;;4.93;1.50;;;;;;;10.56;56.42;99262.84;5026729;28;20058;-56
2022/12/30 12:29:25;;;;;;;5.28;1.58;;;;;;;10.62;56.96;99252.28;5029979;28;20057;-54
2022/12/30 12:32:34;;;;;;;4.82;1.73;;;;;;;10.42;57.05;99236.47;5031703;28;20054;-54
2022/12/30 12:35:09;;;;;;;4.03;1.40;;;;;;;10.61;56.77;99249.84;4991589;28;20058;-54
2022/12/30 12:37:58;;;;;;;3.88;1.45;;;;;;;10.63;56.64;99197.41;4992562;28;20153;-54
2022/12/30 12:40:51;;;;;;;4.70;1.33;;;;;;;10.70;56.70;99203.22;5015047;28;20418;-56
2022/12/30 12:43:23;;;;;;;2.88;1.30;;;;;;;10.76;55.88;99199.84;5027406;28;20061;-54
2022/12/30 12:46:22;;;;;;;6.10;1.90;;;;;;;10.89;55.80;99188.72;5030619;28;20406;-54
2022/12/30 12:49:14;;;;;;;4.43;1.25;;;;;;;10.80;55.58;99158.19;5029541;28;20053;-56
2022/12/30 12:52:04;;;;;;;3.22;1.25;;;;;;;10.65;55.67;99151.34;5031804;28;20064;-55
2022/12/30 12:55:02;;;;;;;4.78;1.50;;;;;;;10.76;56.34;99112.69;5031696;28;20049;-59
2022/12/30 12:57:38;;;;;;;2.85;1.05;;;;;;;10.78;56.32;99129.88;5023207;28;20064;-55
2022/12/30 13:00:11;;;;;;;4.38;1.88;;;;;;;10.66;56.29;99113.97;5005515;28;20056;-54
2022/12/30 13:03:15;;;;;;;4.53;1.13;;;;;;;10.85;56.42;99099.44;5032118;28;20060;-54
2022/12/30 13:05:51;;;;;;;3.35;1.25;;;;;;;10.83;57.01;99101.78;5031412;28;20060;-54